sensor_id;sensor_type;location;lat;lon;timestamp;temperature;humidity
296;DHT22;132;48.770;9.200;2023-12-14T00:01:56;6.70;1.00
296;DHT22;132;48.770;9.200;2023-12-14T00:04:33;6.80;1.00
296;DHT22;132;48.770;9.200;2023-12-14T00:07:11;7.50;1.00
296;DHT22;132;48.770;9.200;2023-12-14T00:09:51;6.80;1.00
296;DHT22;132;48.770;9.200;2023-12-14T00:12:28;6.80;1.00
296;DHT22;132;48.770;9.200;2023-12-14T00:15:06;6.90;1.00
296;DHT22;132;48.770;9.200;2023-12-14T00:17:44;6.80;1.00
296;DHT22;132;48.770;9.200;2023-12-14T00:20:22;6.80;1.00
296;DHT22;132;48.770;9.200;2023-12-14T00:22:59;7.50;1.00
296;DHT22;132;48.770;9.200;2023-12-14T00:25:37;6.70;1.00
296;DHT22;132;48.770;9.200;2023-12-14T00:28:15;6.70;1.00
296;DHT22;132;48.770;9.200;2023-12-14T00:30:52;6.70;1.00
296;DHT22;132;48.770;9.200;2023-12-14T00:33:30;6.70;1.00
296;DHT22;132;48.770;9.200;2023-12-14T00:36:08;6.80;1.00
296;DHT22;132;48.770;9.200;2023-12-14T00:38:45;6.70;1.00
296;DHT22;132;48.770;9.200;2023-12-14T00:41:23;6.70;1.00
296;DHT22;132;48.770;9.200;2023-12-14T00:44:15;6.80;1.00
296;DHT22;132;48.770;9.200;2023-12-14T00:46:53;6.80;1.00
296;DHT22;132;48.770;9.200;2023-12-14T00:49:34;6.80;1.00
296;DHT22;132;48.770;9.200;2023-12-14T00:52:13;6.80;1.00
296;DHT22;132;48.770;9.200;2023-12-14T00:54:54;6.60;1.00
296;DHT22;132;48.770;9.200;2023-12-14T01:08:02;8.00;1.00
296;DHT22;132;48.770;9.200;2023-12-14T01:21:10;6.40;1.00
296;DHT22;132;48.770;9.200;2023-12-14T01:24:05;7.00;1.00
296;DHT22;132;48.770;9.200;2023-12-14T01:37:12;6.90;1.00
296;DHT22;132;48.770;9.200;2023-12-14T01:39:51;7.50;1.00
296;DHT22;132;48.770;9.200;2023-12-14T01:42:39;6.70;1.00
296;DHT22;132;48.770;9.200;2023-12-14T01:45:25;6.60;1.00
296;DHT22;132;48.770;9.200;2023-12-14T01:48:04;6.60;1.00
296;DHT22;132;48.770;9.200;2023-12-14T01:50:59;7.10;1.00
296;DHT22;132;48.770;9.200;2023-12-14T01:53:47;7.00;1.00
296;DHT22;132;48.770;9.200;2023-12-14T01:56:29;6.90;1.00
296;DHT22;132;48.770;9.200;2023-12-14T01:59:13;7.50;1.00
296;DHT22;132;48.770;9.200;2023-12-14T02:02:04;7.00;1.00
296;DHT22;132;48.770;9.200;2023-12-14T02:04:52;6.50;1.00
296;DHT22;132;48.770;9.200;2023-12-14T02:07:44;6.60;1.00
296;DHT22;132;48.770;9.200;2023-12-14T02:20:52;7.80;1.00
296;DHT22;132;48.770;9.200;2023-12-14T02:23:45;6.90;1.00
296;DHT22;132;48.770;9.200;2023-12-14T02:36:52;6.70;1.00
296;DHT22;132;48.770;9.200;2023-12-14T02:52:35;6.60;1.00
296;DHT22;132;48.770;9.200;2023-12-14T03:08:20;6.70;1.00
296;DHT22;132;48.770;9.200;2023-12-14T03:21:27;6.70;1.00
296;DHT22;132;48.770;9.200;2023-12-14T03:34:33;6.60;1.00
296;DHT22;132;48.770;9.200;2023-12-14T03:47:40;6.70;1.00
296;DHT22;132;48.770;9.200;2023-12-14T04:03:24;6.80;1.00
296;DHT22;132;48.770;9.200;2023-12-14T04:16:41;7.00;1.00
296;DHT22;132;48.770;9.200;2023-12-14T04:40:45;7.00;1.00
296;DHT22;132;48.770;9.200;2023-12-14T04:59:04;7.00;1.00
296;DHT22;132;48.770;9.200;2023-12-14T06:00:22;7.20;1.00
296;DHT22;132;48.770;9.200;2023-12-14T06:16:06;6.90;1.00
296;DHT22;132;48.770;9.200;2023-12-14T06:41:21;6.90;1.00
296;DHT22;132;48.770;9.200;2023-12-14T06:54:30;7.80;1.00
296;DHT22;132;48.770;9.200;2023-12-14T06:57:18;7.50;1.00
296;DHT22;132;48.770;9.200;2023-12-14T07:10:25;6.90;1.00
296;DHT22;132;48.770;9.200;2023-12-14T07:13:21;7.20;1.00
296;DHT22;132;48.770;9.200;2023-12-14T07:36:52;7.20;1.00
296;DHT22;132;48.770;9.200;2023-12-14T07:52:36;7.20;1.00
296;DHT22;132;48.770;9.200;2023-12-14T08:08:23;7.10;1.00
296;DHT22;132;48.770;9.200;2023-12-14T08:21:32;7.20;1.00
296;DHT22;132;48.770;9.200;2023-12-14T08:34:41;7.50;1.00
296;DHT22;132;48.770;9.200;2023-12-14T08:47:48;7.60;1.00
296;DHT22;132;48.770;9.200;2023-12-14T09:00:57;8.20;1.00
296;DHT22;132;48.770;9.200;2023-12-14T09:14:08;8.10;1.00
296;DHT22;132;48.770;9.200;2023-12-14T09:16:47;7.90;1.00
296;DHT22;132;48.770;9.200;2023-12-14T09:19:37;8.00;1.00
296;DHT22;132;48.770;9.200;2023-12-14T09:22:35;8.10;1.00
296;DHT22;132;48.770;9.200;2023-12-14T09:25:25;7.20;1.00
296;DHT22;132;48.770;9.200;2023-12-14T09:38:28;7.40;1.00
296;DHT22;132;48.770;9.200;2023-12-14T09:51:31;8.50;1.00
296;DHT22;132;48.770;9.200;2023-12-14T09:54:16;8.60;1.00
296;DHT22;132;48.770;9.200;2023-12-14T09:57:08;8.50;1.00
296;DHT22;132;48.770;9.200;2023-12-14T09:59:52;8.70;1.00
296;DHT22;132;48.770;9.200;2023-12-14T10:13:03;8.50;1.00
296;DHT22;132;48.770;9.200;2023-12-14T10:26:14;8.70;1.00
296;DHT22;132;48.770;9.200;2023-12-14T10:39:22;9.50;1.00
296;DHT22;132;48.770;9.200;2023-12-14T10:52:31;10.60;1.00
296;DHT22;132;48.770;9.200;2023-12-14T10:55:48;10.80;1.00
296;DHT22;132;48.770;9.200;2023-12-14T11:11:04;10.50;1.00
296;DHT22;132;48.770;9.200;2023-12-14T11:24:17;9.70;1.00
296;DHT22;132;48.770;9.200;2023-12-14T11:37:52;10.10;1.00
296;DHT22;132;48.770;9.200;2023-12-14T11:51:00;9.60;1.00
296;DHT22;132;48.770;9.200;2023-12-14T11:53:39;9.30;1.00
296;DHT22;132;48.770;9.200;2023-12-14T11:56:23;9.40;1.00
296;DHT22;132;48.770;9.200;2023-12-14T12:09:38;9.50;1.00
296;DHT22;132;48.770;9.200;2023-12-14T12:12:28;9.10;1.00
296;DHT22;132;48.770;9.200;2023-12-14T12:25:35;9.10;1.00
296;DHT22;132;48.770;9.200;2023-12-14T12:28:25;9.70;1.00
296;DHT22;132;48.770;9.200;2023-12-14T12:41:33;9.40;1.00
296;DHT22;132;48.770;9.200;2023-12-14T13:11:28;9.00;1.00
296;DHT22;132;48.770;9.200;2023-12-14T13:24:54;9.70;1.00
296;DHT22;132;48.770;9.200;2023-12-14T13:40:38;8.20;1.00
296;DHT22;132;48.770;9.200;2023-12-14T14:04:55;9.50;1.00
296;DHT22;132;48.770;9.200;2023-12-14T14:07:36;8.50;1.00
296;DHT22;132;48.770;9.200;2023-12-14T14:10:14;8.40;1.00
296;DHT22;132;48.770;9.200;2023-12-14T14:12:52;8.20;1.00
296;DHT22;132;48.770;9.200;2023-12-14T14:15:32;8.20;1.00
296;DHT22;132;48.770;9.200;2023-12-14T14:18:20;8.20;1.00
296;DHT22;132;48.770;9.200;2023-12-14T14:20:59;8.20;1.00
296;DHT22;132;48.770;9.200;2023-12-14T14:23:44;8.10;1.00
296;DHT22;132;48.770;9.200;2023-12-14T14:26:27;8.20;1.00
296;DHT22;132;48.770;9.200;2023-12-14T14:29:06;8.00;1.00
296;DHT22;132;48.770;9.200;2023-12-14T14:31:52;8.00;1.00
296;DHT22;132;48.770;9.200;2023-12-14T14:44:55;8.00;1.00
296;DHT22;132;48.770;9.200;2023-12-14T14:47:34;7.80;1.00
296;DHT22;132;48.770;9.200;2023-12-14T14:50:13;7.80;1.00
296;DHT22;132;48.770;9.200;2023-12-14T14:52:55;7.80;1.00
296;DHT22;132;48.770;9.200;2023-12-14T14:55:41;7.80;1.00
296;DHT22;132;48.770;9.200;2023-12-14T14:58:24;7.80;1.00
296;DHT22;132;48.770;9.200;2023-12-14T15:01:15;7.90;1.00
296;DHT22;132;48.770;9.200;2023-12-14T15:14:23;7.90;1.00
296;DHT22;132;48.770;9.200;2023-12-14T15:17:04;7.70;1.00
296;DHT22;132;48.770;9.200;2023-12-14T15:19:48;7.80;1.00
296;DHT22;132;48.770;9.200;2023-12-14T15:44:48;7.70;1.00
296;DHT22;132;48.770;9.200;2023-12-14T15:57:53;8.10;1.00
296;DHT22;132;48.770;9.200;2023-12-14T16:11:06;8.70;1.00
296;DHT22;132;48.770;9.200;2023-12-14T16:24:14;7.80;1.00
296;DHT22;132;48.770;9.200;2023-12-14T16:39:59;7.70;1.00
296;DHT22;132;48.770;9.200;2023-12-14T16:53:06;7.70;1.00
296;DHT22;132;48.770;9.200;2023-12-14T17:08:45;7.70;1.00
296;DHT22;132;48.770;9.200;2023-12-14T17:11:25;7.60;1.00
296;DHT22;132;48.770;9.200;2023-12-14T17:14:04;7.70;1.00
296;DHT22;132;48.770;9.200;2023-12-14T17:16:50;7.70;1.00
296;DHT22;132;48.770;9.200;2023-12-14T17:19:30;7.60;1.00
296;DHT22;132;48.770;9.200;2023-12-14T17:22:28;7.60;1.00
296;DHT22;132;48.770;9.200;2023-12-14T17:25:23;7.60;1.00
296;DHT22;132;48.770;9.200;2023-12-14T17:31:18;7.50;1.00
296;DHT22;132;48.770;9.200;2023-12-14T17:45:05;8.50;1.00
296;DHT22;132;48.770;9.200;2023-12-14T17:47:46;7.40;1.00
296;DHT22;132;48.770;9.200;2023-12-14T17:50:26;7.60;1.00
296;DHT22;132;48.770;9.200;2023-12-14T17:53:16;7.40;1.00
296;DHT22;132;48.770;9.200;2023-12-14T17:56:16;7.40;1.00
296;DHT22;132;48.770;9.200;2023-12-14T17:58:54;7.40;1.00
296;DHT22;132;48.770;9.200;2023-12-14T18:01:33;7.40;1.00
296;DHT22;132;48.770;9.200;2023-12-14T18:04:13;8.10;1.00
296;DHT22;132;48.770;9.200;2023-12-14T18:06:53;7.40;1.00
296;DHT22;132;48.770;9.200;2023-12-14T18:09:33;7.40;1.00
296;DHT22;132;48.770;9.200;2023-12-14T18:22:42;7.50;1.00
296;DHT22;132;48.770;9.200;2023-12-14T18:25:21;7.20;1.00
296;DHT22;132;48.770;9.200;2023-12-14T18:28:02;7.20;1.00
296;DHT22;132;48.770;9.200;2023-12-14T18:30:41;7.20;1.00
296;DHT22;132;48.770;9.200;2023-12-14T18:33:28;7.60;1.00
296;DHT22;132;48.770;9.200;2023-12-14T18:36:20;7.20;1.00
296;DHT22;132;48.770;9.200;2023-12-14T18:39:09;7.10;1.00
296;DHT22;132;48.770;9.200;2023-12-14T18:41:48;8.00;1.00
296;DHT22;132;48.770;9.200;2023-12-14T18:44:34;7.00;1.00
296;DHT22;132;48.770;9.200;2023-12-14T18:47:40;7.00;1.00
296;DHT22;132;48.770;9.200;2023-12-14T18:50:36;7.10;1.00
296;DHT22;132;48.770;9.200;2023-12-14T18:53:16;7.70;1.00
296;DHT22;132;48.770;9.200;2023-12-14T18:55:55;7.00;1.00
296;DHT22;132;48.770;9.200;2023-12-14T18:58:35;7.00;1.00
296;DHT22;132;48.770;9.200;2023-12-14T19:01:15;7.00;1.00
296;DHT22;132;48.770;9.200;2023-12-14T19:03:54;7.00;1.00
296;DHT22;132;48.770;9.200;2023-12-14T19:06:33;7.00;1.00
296;DHT22;132;48.770;9.200;2023-12-14T19:09:12;7.00;1.00
296;DHT22;132;48.770;9.200;2023-12-14T19:11:50;7.50;1.00
296;DHT22;132;48.770;9.200;2023-12-14T19:14:30;6.90;1.00
296;DHT22;132;48.770;9.200;2023-12-14T19:17:09;6.90;1.00
296;DHT22;132;48.770;9.200;2023-12-14T19:19:50;6.90;1.00
296;DHT22;132;48.770;9.200;2023-12-14T19:22:32;6.80;1.00
296;DHT22;132;48.770;9.200;2023-12-14T19:25:13;7.70;1.00
296;DHT22;132;48.770;9.200;2023-12-14T19:27:53;6.80;1.00
296;DHT22;132;48.770;9.200;2023-12-14T19:30:32;6.80;1.00
296;DHT22;132;48.770;9.200;2023-12-14T19:33:11;6.90;1.00
296;DHT22;132;48.770;9.200;2023-12-14T19:35:52;6.80;1.00
296;DHT22;132;48.770;9.200;2023-12-14T19:38:31;6.50;1.00
296;DHT22;132;48.770;9.200;2023-12-14T19:41:10;6.80;1.00
296;DHT22;132;48.770;9.200;2023-12-14T19:43:49;7.10;1.00
296;DHT22;132;48.770;9.200;2023-12-14T19:46:28;6.80;1.00
296;DHT22;132;48.770;9.200;2023-12-14T19:49:07;6.80;1.00
296;DHT22;132;48.770;9.200;2023-12-14T19:51:46;6.80;1.00
296;DHT22;132;48.770;9.200;2023-12-14T19:54:25;6.80;1.00
296;DHT22;132;48.770;9.200;2023-12-14T19:57:05;6.80;1.00
296;DHT22;132;48.770;9.200;2023-12-14T19:59:43;6.70;1.00
296;DHT22;132;48.770;9.200;2023-12-14T20:02:26;6.60;1.00
296;DHT22;132;48.770;9.200;2023-12-14T20:05:08;6.70;1.00
296;DHT22;132;48.770;9.200;2023-12-14T20:07:46;6.60;1.00
296;DHT22;132;48.770;9.200;2023-12-14T20:10:26;6.60;1.00
296;DHT22;132;48.770;9.200;2023-12-14T20:13:05;6.70;1.00
296;DHT22;132;48.770;9.200;2023-12-14T20:15:48;6.70;1.00
296;DHT22;132;48.770;9.200;2023-12-14T20:18:31;6.60;1.00
296;DHT22;132;48.770;9.200;2023-12-14T20:21:10;6.60;1.00
296;DHT22;132;48.770;9.200;2023-12-14T20:23:48;6.60;1.00
296;DHT22;132;48.770;9.200;2023-12-14T20:26:26;6.60;1.00
296;DHT22;132;48.770;9.200;2023-12-14T20:29:09;6.60;1.00
296;DHT22;132;48.770;9.200;2023-12-14T20:31:47;6.60;1.00
296;DHT22;132;48.770;9.200;2023-12-14T20:34:27;7.10;1.00
296;DHT22;132;48.770;9.200;2023-12-14T20:37:06;6.60;1.00
296;DHT22;132;48.770;9.200;2023-12-14T20:39:45;6.60;1.00
296;DHT22;132;48.770;9.200;2023-12-14T20:42:25;6.80;1.00
296;DHT22;132;48.770;9.200;2023-12-14T20:45:07;6.80;1.00
296;DHT22;132;48.770;9.200;2023-12-14T20:47:46;6.40;1.00
296;DHT22;132;48.770;9.200;2023-12-14T20:50:24;6.80;1.00
296;DHT22;132;48.770;9.200;2023-12-14T20:53:06;6.30;1.00
296;DHT22;132;48.770;9.200;2023-12-14T20:55:45;6.20;1.00
296;DHT22;132;48.770;9.200;2023-12-14T20:58:24;6.20;1.00
296;DHT22;132;48.770;9.200;2023-12-14T21:01:03;6.10;1.00
296;DHT22;132;48.770;9.200;2023-12-14T21:03:42;6.10;1.00
296;DHT22;132;48.770;9.200;2023-12-14T21:06:23;6.10;1.00
296;DHT22;132;48.770;9.200;2023-12-14T21:09:03;6.00;1.00
296;DHT22;132;48.770;9.200;2023-12-14T21:11:44;6.00;1.00
296;DHT22;132;48.770;9.200;2023-12-14T21:14:22;5.90;1.00
296;DHT22;132;48.770;9.200;2023-12-14T21:17:02;5.90;1.00
296;DHT22;132;48.770;9.200;2023-12-14T21:19:46;5.80;1.00
296;DHT22;132;48.770;9.200;2023-12-14T21:22:23;5.90;1.00
296;DHT22;132;48.770;9.200;2023-12-14T21:25:03;5.70;1.00
296;DHT22;132;48.770;9.200;2023-12-14T21:27:45;5.70;1.00
296;DHT22;132;48.770;9.200;2023-12-14T21:30:24;5.80;1.00
296;DHT22;132;48.770;9.200;2023-12-14T21:33:03;5.70;1.00
296;DHT22;132;48.770;9.200;2023-12-14T21:35:44;5.70;1.00
296;DHT22;132;48.770;9.200;2023-12-14T21:38:36;5.70;1.00
296;DHT22;132;48.770;9.200;2023-12-14T21:41:15;5.70;1.00
296;DHT22;132;48.770;9.200;2023-12-14T21:43:55;5.70;1.00
296;DHT22;132;48.770;9.200;2023-12-14T21:46:35;5.70;1.00
296;DHT22;132;48.770;9.200;2023-12-14T21:49:15;5.70;1.00
296;DHT22;132;48.770;9.200;2023-12-14T21:51:55;5.70;1.00
296;DHT22;132;48.770;9.200;2023-12-14T21:54:34;5.70;1.00
296;DHT22;132;48.770;9.200;2023-12-14T21:57:13;6.10;1.00
296;DHT22;132;48.770;9.200;2023-12-14T21:59:52;6.10;1.00
296;DHT22;132;48.770;9.200;2023-12-14T22:02:30;6.60;1.00
296;DHT22;132;48.770;9.200;2023-12-14T22:05:09;5.70;1.00
296;DHT22;132;48.770;9.200;2023-12-14T22:07:47;6.00;1.00
296;DHT22;132;48.770;9.200;2023-12-14T22:10:44;5.70;1.00
296;DHT22;132;48.770;9.200;2023-12-14T22:13:22;5.70;1.00
296;DHT22;132;48.770;9.200;2023-12-14T22:16:02;5.60;1.00
296;DHT22;132;48.770;9.200;2023-12-14T22:18:40;5.60;1.00
296;DHT22;132;48.770;9.200;2023-12-14T22:21:20;5.50;1.00
296;DHT22;132;48.770;9.200;2023-12-14T22:23:58;5.50;1.00
296;DHT22;132;48.770;9.200;2023-12-14T22:26:37;5.40;1.00
296;DHT22;132;48.770;9.200;2023-12-14T22:29:16;5.40;1.00
296;DHT22;132;48.770;9.200;2023-12-14T22:31:56;5.40;1.00
296;DHT22;132;48.770;9.200;2023-12-14T22:34:34;5.40;1.00
296;DHT22;132;48.770;9.200;2023-12-14T22:37:14;5.90;1.00
296;DHT22;132;48.770;9.200;2023-12-14T22:39:52;5.40;1.00
296;DHT22;132;48.770;9.200;2023-12-14T22:42:34;5.50;1.00
296;DHT22;132;48.770;9.200;2023-12-14T22:45:15;5.40;1.00
296;DHT22;132;48.770;9.200;2023-12-14T22:47:58;5.40;1.00
296;DHT22;132;48.770;9.200;2023-12-14T22:50:41;5.40;1.00
296;DHT22;132;48.770;9.200;2023-12-14T22:53:24;6.00;1.00
296;DHT22;132;48.770;9.200;2023-12-14T22:56:05;5.40;1.00
296;DHT22;132;48.770;9.200;2023-12-14T22:58:44;5.50;1.00
296;DHT22;132;48.770;9.200;2023-12-14T23:01:32;5.50;1.00
296;DHT22;132;48.770;9.200;2023-12-14T23:04:14;5.50;1.00
296;DHT22;132;48.770;9.200;2023-12-14T23:06:54;5.50;1.00
296;DHT22;132;48.770;9.200;2023-12-14T23:09:34;5.50;1.00
296;DHT22;132;48.770;9.200;2023-12-14T23:12:12;5.50;1.00
296;DHT22;132;48.770;9.200;2023-12-14T23:14:53;5.70;1.00
296;DHT22;132;48.770;9.200;2023-12-14T23:17:33;5.40;1.00
296;DHT22;132;48.770;9.200;2023-12-14T23:20:12;5.40;1.00
296;DHT22;132;48.770;9.200;2023-12-14T23:22:53;5.70;1.00
296;DHT22;132;48.770;9.200;2023-12-14T23:25:31;5.40;1.00
296;DHT22;132;48.770;9.200;2023-12-14T23:28:13;5.40;1.00
296;DHT22;132;48.770;9.200;2023-12-14T23:30:54;5.40;1.00
296;DHT22;132;48.770;9.200;2023-12-14T23:33:33;5.40;1.00
296;DHT22;132;48.770;9.200;2023-12-14T23:36:13;5.40;1.00
296;DHT22;132;48.770;9.200;2023-12-14T23:38:55;6.10;1.00
296;DHT22;132;48.770;9.200;2023-12-14T23:41:33;5.40;1.00
296;DHT22;132;48.770;9.200;2023-12-14T23:44:13;5.40;1.00
296;DHT22;132;48.770;9.200;2023-12-14T23:46:54;5.40;1.00
296;DHT22;132;48.770;9.200;2023-12-14T23:49:33;5.90;1.00
296;DHT22;132;48.770;9.200;2023-12-14T23:52:14;5.40;1.00
296;DHT22;132;48.770;9.200;2023-12-14T23:54:52;6.40;1.00
296;DHT22;132;48.770;9.200;2023-12-14T23:57:32;5.40;1.00
